Time;durP1;ratioP1;P1;durP2;ratioP2;P2;SDS_P1;SDS_P2;PMS_P1;PMS_P2;Temp;Humidity;BMP_temperature;BMP_pressure;BME280_temperature;BME280_humidity;BME280_pressure;Samples;Min_cycle;Max_cycle;Signal;HPM_P1;HPM_P2
2022/10/14 00:01:14;;;;;;;9.68;7.35;;;18.30;96.70;;;;;;5081201;28;20040;-72
2022/10/14 00:03:42;;;;;;;8.82;6.53;;;18.20;96.70;;;;;;5054951;28;20051;-73
2022/10/14 00:06:14;;;;;;;10.45;6.90;;;18.20;96.70;;;;;;5082788;28;20040;-73
2022/10/14 00:08:43;;;;;;;10.45;6.70;;;18.00;96.70;;;;;;5082850;28;20044;-72
2022/10/14 00:11:16;;;;;;;10.20;6.63;;;18.10;96.70;;;;;;5082397;28;20036;-72
2022/10/14 00:13:44;;;;;;;9.45;6.40;;;17.80;96.70;;;;;;5078562;28;20418;-72
2022/10/14 00:16:18;;;;;;;9.18;6.35;;;17.80;96.70;;;;;;5076449;28;20040;-72
2022/10/14 00:18:46;;;;;;;9.27;6.20;;;17.90;96.70;;;;;;5082886;28;20504;-73
2022/10/14 00:21:14;;;;;;;8.88;6.55;;;17.90;96.70;;;;;;5081829;28;20523;-72
2022/10/14 00:23:43;;;;;;;15.00;7.72;;;17.90;96.70;;;;;;5083149;28;20044;-72
2022/10/14 00:26:17;;;;;;;7.53;6.72;;;17.90;96.70;;;;;;5082603;28;20042;-72
2022/10/14 00:28:45;;;;;;;8.90;7.10;;;17.90;96.70;;;;;;5082173;28;20156;-72
2022/10/14 00:31:13;;;;;;;9.80;6.72;;;17.90;96.70;;;;;;5082654;28;20032;-72
2022/10/14 00:33:44;;;;;;;8.50;6.72;;;17.90;96.70;;;;;;5065638;28;20082;-72
2022/10/14 00:36:14;;;;;;;17.15;7.88;;;17.80;96.70;;;;;;5080918;28;20055;-72
2022/10/14 00:38:42;;;;;;;10.30;7.28;;;17.90;96.70;;;;;;5078934;28;20036;-73
2022/10/14 00:41:11;;;;;;;11.10;7.93;;;17.90;96.70;;;;;;5109006;28;20058;-72
2022/10/14 00:43:59;;;;;;;12.35;7.57;;;17.80;96.70;;;;;;5082644;28;20044;-73
2022/10/14 00:46:29;;;;;;;10.82;7.68;;;17.80;96.70;;;;;;5082862;28;20093;-72
2022/10/14 00:49:04;;;;;;;9.98;7.88;;;17.70;96.70;;;;;;5080275;28;20182;-72
2022/10/14 00:51:33;;;;;;;14.60;8.65;;;17.60;96.70;;;;;;5079656;28;20077;-71
2022/10/14 00:54:02;;;;;;;9.70;6.93;;;17.60;96.70;;;;;;5077544;28;20132;-72
2022/10/14 00:56:30;;;;;;;13.05;7.78;;;17.60;96.70;;;;;;5083415;28;20581;-72
2022/10/14 00:59:02;;;;;;;10.40;8.15;;;17.60;96.70;;;;;;5082152;28;20464;-71
2022/10/14 01:01:31;;;;;;;11.68;8.05;;;17.50;96.70;;;;;;5093273;28;20119;-71
2022/10/14 01:03:59;;;;;;;9.48;7.95;;;17.60;96.70;;;;;;5081278;28;20039;-72
2022/10/14 01:06:41;;;;;;;13.52;8.02;;;17.60;96.70;;;;;;5076256;28;20052;-72
2022/10/14 01:09:19;;;;;;;9.38;7.68;;;17.70;96.70;;;;;;5062409;28;20800;-72
2022/10/14 01:11:59;;;;;;;11.48;8.98;;;17.70;96.70;;;;;;5082618;28;20032;-72
2022/10/14 01:14:58;;;;;;;11.55;8.35;;;17.70;96.70;;;;;;5076654;28;20142;-72
2022/10/14 01:17:37;;;;;;;13.70;8.48;;;17.70;96.70;;;;;;5077376;28;20501;-71
2022/10/14 01:20:32;;;;;;;15.43;8.20;;;17.60;96.70;;;;;;5065033;28;20040;-72
2022/10/14 01:23:26;;;;;;;12.32;8.45;;;17.60;96.70;;;;;;5067328;28;20140;-72
2022/10/14 01:26:03;;;;;;;12.68;8.68;;;17.60;96.70;;;;;;5087650;28;20596;-71
2022/10/14 01:28:42;;;;;;;9.73;7.78;;;17.50;96.70;;;;;;5100189;28;20169;-71
2022/10/14 01:31:19;;;;;;;11.00;8.43;;;17.50;96.70;;;;;;5081022;28;20062;-71
2022/10/14 01:33:54;;;;;;;11.67;7.80;;;17.50;96.70;;;;;;5084389;28;20047;-72
2022/10/14 01:36:27;;;;;;;8.30;6.63;;;17.40;96.70;;;;;;5082566;28;20117;-72
2022/10/14 01:39:00;;;;;;;10.52;6.85;;;17.50;96.70;;;;;;5085971;28;20044;-71
2022/10/14 01:41:31;;;;;;;8.13;6.88;;;17.40;96.70;;;;;;5086602;28;20077;-72
2022/10/14 01:44:04;;;;;;;11.75;6.70;;;17.40;96.70;;;;;;5084271;28;20139;-72
2022/10/14 01:46:37;;;;;;;7.78;6.13;;;17.30;96.70;;;;;;5084509;28;20123;-72
2022/10/14 01:49:10;;;;;;;7.95;6.20;;;17.30;96.70;;;;;;5086037;28;20703;-72
2022/10/14 01:51:44;;;;;;;8.18;5.93;;;17.30;96.70;;;;;;5083750;28;20047;-72
2022/10/14 01:54:17;;;;;;;7.95;5.35;;;17.30;96.70;;;;;;5067382;28;20561;-72
2022/10/14 01:56:48;;;;;;;6.18;5.25;;;17.20;96.70;;;;;;5080190;28;20044;-71
2022/10/14 01:59:19;;;;;;;9.27;5.60;;;17.10;96.70;;;;;;5084594;28;20074;-72
2022/10/14 02:01:49;;;;;;;7.68;5.78;;;17.10;96.70;;;;;;5067448;28;20566;-71
2022/10/14 02:04:18;;;;;;;6.25;5.35;;;17.10;96.70;;;;;;5081560;28;20127;-71
2022/10/14 02:06:50;;;;;;;7.70;5.60;;;17.20;96.70;;;;;;5082162;28;20063;-72
2022/10/14 02:09:26;;;;;;;5.97;5.38;;;17.20;96.70;;;;;;5109929;27;20044;-71
2022/10/14 02:12:03;;;;;;;7.70;6.22;;;17.20;96.70;;;;;;5082096;28;20468;-71
2022/10/14 02:14:38;;;;;;;8.80;6.38;;;17.20;96.70;;;;;;5083966;28;20051;-72
2022/10/14 02:17:16;;;;;;;8.05;6.05;;;17.10;96.70;;;;;;5075658;28;20056;-72
2022/10/14 02:19:49;;;;;;;9.48;6.60;;;17.10;96.70;;;;;;5093301;28;20136;-72
2022/10/14 02:22:24;;;;;;;10.93;6.20;;;17.00;96.70;;;;;;5083114;28;20068;-72
2022/10/14 02:24:56;;;;;;;7.32;5.90;;;16.90;96.70;;;;;;5085061;28;20040;-72
2022/10/14 02:27:27;;;;;;;9.18;6.10;;;16.90;96.70;;;;;;5085326;28;20126;-71
2022/10/14 02:29:57;;;;;;;7.78;6.20;;;16.80;96.70;;;;;;5084505;28;20135;-71
2022/10/14 02:32:27;;;;;;;10.05;6.32;;;16.70;96.70;;;;;;5083350;28;20079;-71
2022/10/14 02:34:58;;;;;;;8.55;6.63;;;16.70;96.70;;;;;;5067152;28;20047;-72
2022/10/14 02:37:29;;;;;;;9.50;6.55;;;16.70;96.70;;;;;;5084572;28;20089;-71
2022/10/14 02:40:07;;;;;;;9.20;6.63;;;16.80;96.70;;;;;;5084533;28;20036;-72
2022/10/14 02:42:35;;;;;;;6.97;6.28;;;16.80;96.70;;;;;;5078460;28;20055;-71
2022/10/14 02:45:06;;;;;;;7.03;6.15;;;16.90;96.70;;;;;;5084515;28;20036;-71
2022/10/14 02:47:36;;;;;;;7.00;5.57;;;16.80;96.70;;;;;;5083112;28;20522;-71
2022/10/14 02:50:06;;;;;;;7.32;6.22;;;16.80;96.70;;;;;;5081513;28;20072;-71
2022/10/14 02:52:33;;;;;;;6.72;5.97;;;16.80;96.70;;;;;;5084947;28;20098;-71
2022/10/14 02:55:01;;;;;;;8.77;6.28;;;16.90;96.70;;;;;;5081923;28;20048;-71
2022/10/14 02:57:29;;;;;;;6.53;5.60;;;16.80;96.70;;;;;;5083865;28;20139;-71
2022/10/14 02:59:57;;;;;;;7.70;6.00;;;16.90;96.70;;;;;;5081686;28;20048;-72
2022/10/14 03:02:25;;;;;;;7.45;5.65;;;16.90;96.70;;;;;;5077010;28;20044;-72
2022/10/14 03:04:54;;;;;;;8.77;7.13;;;17.00;96.70;;;;;;5082862;28;20049;-71
2022/10/14 03:07:23;;;;;;;8.98;6.95;;;17.10;96.70;;;;;;5083635;28;20048;-71
2022/10/14 03:09:52;;;;;;;11.02;7.35;;;17.00;96.70;;;;;;5080487;28;20040;-71
2022/10/14 03:12:23;;;;;;;9.20;6.97;;;17.10;96.70;;;;;;5079771;28;20063;-71
2022/10/14 03:14:53;;;;;;;9.68;7.05;;;17.10;96.70;;;;;;5082649;28;20036;-72
2022/10/14 03:17:23;;;;;;;9.25;7.30;;;17.00;96.70;;;;;;5080357;28;20490;-72
2022/10/14 03:19:52;;;;;;;7.97;6.70;;;16.90;96.70;;;;;;5114287;27;20052;-72
2022/10/14 03:22:21;;;;;;;11.15;8.25;;;16.90;96.70;;;;;;5082681;28;20058;-71
2022/10/14 03:24:50;;;;;;;10.20;6.90;;;17.00;96.70;;;;;;5079639;28;20048;-71
2022/10/14 03:27:38;;;;;;;11.77;7.80;;;17.00;96.70;;;;;;5081839;28;20553;-71
2022/10/14 03:30:11;;;;;;;10.73;7.25;;;17.00;96.70;;;;;;5078130;28;20054;-71
2022/10/14 03:32:50;;;;;;;12.45;8.00;;;17.00;96.70;;;;;;5082297;28;20547;-71
2022/10/14 03:35:55;;;;;;;12.50;8.25;;;17.00;96.70;;;;;;5075344;28;20695;-71
2022/10/14 03:38:38;;;;;;;13.30;9.13;;;16.80;96.70;;;;;;5083291;28;20040;-71
2022/10/14 03:41:11;;;;;;;13.55;9.32;;;16.90;96.70;;;;;;5083344;28;20040;-71
2022/10/14 03:43:39;;;;;;;15.25;9.07;;;17.00;96.70;;;;;;5081791;28;20533;-72
2022/10/14 03:46:07;;;;;;;13.18;9.48;;;17.00;96.70;;;;;;5082716;28;20040;-71
2022/10/14 03:48:36;;;;;;;14.43;9.82;;;16.90;96.70;;;;;;5082036;28;20044;-72
2022/10/14 03:51:04;;;;;;;12.70;9.60;;;16.80;96.70;;;;;;5083962;28;20509;-71
2022/10/14 03:53:34;;;;;;;14.75;9.52;;;16.80;96.70;;;;;;5066042;28;20042;-71
2022/10/14 03:56:06;;;;;;;13.27;9.70;;;16.90;96.70;;;;;;5082284;28;20067;-72
2022/10/14 03:58:35;;;;;;;11.10;9.45;;;16.90;96.70;;;;;;5080882;28;20054;-72
2022/10/14 04:01:10;;;;;;;14.18;9.63;;;16.90;96.70;;;;;;5081496;28;20032;-73
2022/10/14 04:03:58;;;;;;;10.63;9.52;;;16.90;96.70;;;;;;5083403;28;20114;-72
2022/10/14 04:06:28;;;;;;;14.05;9.63;;;16.90;96.70;;;;;;5082016;28;20052;-72
2022/10/14 04:08:57;;;;;;;15.10;8.95;;;16.90;96.70;;;;;;5065457;28;20452;-72
2022/10/14 04:11:32;;;;;;;11.32;8.40;;;16.90;96.70;;;;;;5081578;28;20151;-72
2022/10/14 04:14:05;;;;;;;13.68;9.18;;;16.80;96.70;;;;;;5065826;28;20079;-72
2022/10/14 04:16:39;;;;;;;13.23;8.70;;;16.70;96.70;;;;;;5065817;28;20185;-72
2022/10/14 04:19:12;;;;;;;11.73;8.63;;;16.70;96.70;;;;;;5082158;28;20387;-72
2022/10/14 04:21:41;;;;;;;9.52;7.95;;;16.60;96.70;;;;;;5076704;28;20059;-72
2022/10/14 04:24:11;;;;;;;11.23;8.20;;;16.70;96.70;;;;;;5099016;28;20036;-72
2022/10/14 04:26:53;;;;;;;13.48;8.85;;;16.70;96.70;;;;;;5078866;28;20052;-72
2022/10/14 04:29:34;;;;;;;11.85;8.55;;;16.80;96.70;;;;;;5081978;28;20071;-72
2022/10/14 04:32:07;;;;;;;11.13;7.65;;;16.80;96.70;;;;;;5080006;28;20048;-72
2022/10/14 04:34:36;;;;;;;11.30;8.00;;;16.90;96.70;;;;;;5093729;28;20473;-72
2022/10/14 04:37:06;;;;;;;10.30;7.85;;;16.90;96.70;;;;;;5081171;28;20032;-72
2022/10/14 04:39:47;;;;;;;11.90;7.93;;;16.80;96.70;;;;;;5080941;28;20048;-72
2022/10/14 04:42:18;;;;;;;11.52;8.30;;;16.70;96.70;;;;;;5081417;28;20501;-72
2022/10/14 04:44:50;;;;;;;11.80;8.60;;;16.70;96.70;;;;;;5081535;28;20695;-72
2022/10/14 04:47:25;;;;;;;11.52;8.70;;;16.70;96.70;;;;;;5096280;28;20051;-72
2022/10/14 04:49:58;;;;;;;17.50;9.05;;;16.70;96.70;;;;;;5079534;28;20049;-72
2022/10/14 04:52:29;;;;;;;15.05;9.82;;;16.70;96.70;;;;;;5079267;28;20561;-73
2022/10/14 04:55:05;;;;;;;16.45;10.10;;;16.80;96.70;;;;;;5060046;28;20051;-72
2022/10/14 04:57:44;;;;;;;20.70;10.50;;;16.80;96.70;;;;;;5062902;28;20056;-72
2022/10/14 05:00:14;;;;;;;18.20;11.80;;;16.70;96.70;;;;;;5080805;28;20052;-72
2022/10/14 05:02:49;;;;;;;17.55;11.35;;;16.50;96.70;;;;;;5084119;28;20048;-72
2022/10/14 05:05:19;;;;;;;20.15;10.60;;;16.40;96.70;;;;;;5085773;28;20093;-72
2022/10/14 05:07:52;;;;;;;39.58;11.68;;;16.50;96.70;;;;;;5082139;28;20067;-72
2022/10/14 05:10:27;;;;;;;21.42;11.82;;;16.60;96.70;;;;;;5080509;28;20040;-72
2022/10/14 05:12:57;;;;;;;17.08;10.75;;;16.40;96.70;;;;;;5085075;28;20724;-72
2022/10/14 05:15:30;;;;;;;18.35;10.32;;;16.40;96.70;;;;;;5112667;27;20467;-72
2022/10/14 05:18:08;;;;;;;18.58;11.00;;;16.40;96.70;;;;;;5083941;28;20628;-72
2022/10/14 05:20:49;;;;;;;27.48;11.65;;;16.30;96.70;;;;;;5083955;28;20246;-72
2022/10/14 05:23:20;;;;;;;19.40;10.98;;;16.30;96.70;;;;;;5084607;28;20055;-72
2022/10/14 05:25:50;;;;;;;14.20;10.32;;;16.40;96.70;;;;;;5066564;28;20052;-72
2022/10/14 05:28:21;;;;;;;22.15;11.52;;;16.50;96.70;;;;;;5086302;28;20606;-72
2022/10/14 05:30:50;;;;;;;17.55;11.05;;;16.40;96.70;;;;;;5081937;28;20581;-72
2022/10/14 05:33:19;;;;;;;19.33;10.70;;;16.30;96.70;;;;;;5082473;28;20484;-72
2022/10/14 05:35:48;;;;;;;19.95;12.30;;;16.30;96.70;;;;;;5084611;28;20048;-72
2022/10/14 05:38:34;;;;;;;17.73;11.65;;;16.40;96.70;;;;;;5079476;28;20391;-72
2022/10/14 05:41:03;;;;;;;18.20;10.95;;;16.40;96.70;;;;;;5084716;28;20421;-72
2022/10/14 05:43:33;;;;;;;18.92;11.00;;;16.30;96.70;;;;;;5084901;28;20051;-71
2022/10/14 05:46:04;;;;;;;16.60;11.32;;;16.30;96.70;;;;;;5100534;28;20040;-71
2022/10/14 05:48:37;;;;;;;16.08;9.63;;;16.20;96.70;;;;;;5083773;28;20615;-72
2022/10/14 05:51:05;;;;;;;19.20;10.75;;;16.10;96.70;;;;;;5062580;28;20044;-72
2022/10/14 05:53:38;;;;;;;19.30;10.07;;;16.10;96.70;;;;;;5094684;28;20575;-72
2022/10/14 05:56:13;;;;;;;16.05;9.38;;;16.10;96.70;;;;;;5081455;28;20049;-72
2022/10/14 05:58:42;;;;;;;21.13;9.73;;;16.20;96.70;;;;;;5083537;28;20051;-72
2022/10/14 06:01:11;;;;;;;14.70;10.40;;;16.20;96.70;;;;;;5083023;28;20044;-71
2022/10/14 06:03:41;;;;;;;14.65;10.30;;;16.20;96.70;;;;;;5092837;28;20128;-71
2022/10/14 06:06:11;;;;;;;16.02;10.40;;;16.20;96.70;;;;;;5083174;28;21140;-72
2022/10/14 06:08:40;;;;;;;16.65;9.88;;;16.10;96.70;;;;;;5083833;28;20152;-71
2022/10/14 06:11:09;;;;;;;13.85;10.23;;;16.10;96.70;;;;;;5077359;28;20047;-71
2022/10/14 06:13:38;;;;;;;14.52;9.98;;;16.10;96.70;;;;;;5080130;28;20111;-71
2022/10/14 06:16:10;;;;;;;15.40;10.35;;;16.10;96.70;;;;;;5067106;28;20040;-71
2022/10/14 06:18:38;;;;;;;16.08;9.30;;;16.10;96.70;;;;;;5084264;28;20060;-71
2022/10/14 06:21:06;;;;;;;14.77;9.90;;;16.20;96.70;;;;;;5082670;28;20044;-71
2022/10/14 06:23:34;;;;;;;12.68;9.00;;;16.20;96.70;;;;;;5083968;28;20632;-72
2022/10/14 06:26:04;;;;;;;10.52;8.32;;;16.20;96.70;;;;;;5083012;28;20043;-72
2022/10/14 06:28:33;;;;;;;9.63;8.35;;;16.20;96.70;;;;;;5079998;28;20044;-71
2022/10/14 06:31:01;;;;;;;8.07;6.68;;;16.20;96.70;;;;;;5081519;28;20046;-71
2022/10/14 06:33:32;;;;;;;8.55;7.32;;;16.30;96.70;;;;;;5085248;28;20718;-71
2022/10/14 06:36:01;;;;;;;9.10;7.47;;;16.40;96.70;;;;;;5079984;28;20036;-71
2022/10/14 06:38:29;;;;;;;11.85;7.75;;;16.50;96.70;;;;;;5085022;28;20097;-72
2022/10/14 06:40:57;;;;;;;9.70;6.72;;;16.40;96.70;;;;;;5082757;28;20044;-73
2022/10/14 06:43:27;;;;;;;8.10;7.25;;;16.40;96.70;;;;;;5084033;28;20146;-71
2022/10/14 06:45:57;;;;;;;8.50;7.15;;;16.40;96.70;;;;;;5083484;28;20046;-71
2022/10/14 06:48:25;;;;;;;10.60;8.27;;;16.30;96.70;;;;;;5082723;28;20060;-71
2022/10/14 06:50:57;;;;;;;17.25;10.43;;;16.50;96.70;;;;;;5084414;28;20103;-71
2022/10/14 06:53:25;;;;;;;17.90;10.50;;;16.50;96.70;;;;;;5085203;28;20044;-71
2022/10/14 06:55:58;;;;;;;20.67;11.27;;;16.50;96.70;;;;;;5083734;28;20040;-71
2022/10/14 06:58:26;;;;;;;18.83;11.35;;;16.40;96.70;;;;;;5082092;28;20510;-71
2022/10/14 07:00:54;;;;;;;20.70;12.60;;;16.50;96.70;;;;;;5082403;28;20070;-71
2022/10/14 07:03:25;;;;;;;21.30;13.43;;;16.60;96.70;;;;;;5083316;28;20062;-71
2022/10/14 07:05:55;;;;;;;24.35;14.15;;;16.50;96.70;;;;;;5084545;28;20051;-72
2022/10/14 07:08:23;;;;;;;30.05;17.60;;;16.60;96.70;;;;;;5082738;28;20506;-72
2022/10/14 07:10:51;;;;;;;35.78;22.98;;;16.50;96.70;;;;;;5084420;28;20044;-73
2022/10/14 07:13:19;;;;;;;36.58;23.42;;;16.50;96.70;;;;;;5080917;28;20037;-71
2022/10/14 07:15:48;;;;;;;46.55;33.67;;;16.60;96.70;;;;;;5083738;28;20089;-70
2022/10/14 07:18:16;;;;;;;76.97;53.17;;;16.70;96.70;;;;;;5081901;28;20075;-72
2022/10/14 07:20:44;;;;;;;109.75;77.18;;;16.70;96.70;;;;;;5084438;28;20040;-71
2022/10/14 07:23:15;;;;;;;77.68;54.25;;;16.80;96.70;;;;;;5081548;28;20044;-72
2022/10/14 07:25:43;;;;;;;50.88;33.13;;;16.90;96.70;;;;;;5081246;28;20097;-71
2022/10/14 07:28:11;;;;;;;55.03;34.80;;;16.80;96.70;;;;;;5078188;28;20040;-72
2022/10/14 07:30:39;;;;;;;30.83;17.13;;;16.90;96.70;;;;;;5081390;28;20571;-72
2022/10/14 07:33:07;;;;;;;25.73;17.00;;;16.90;96.70;;;;;;5082307;28;20040;-72
2022/10/14 07:35:37;;;;;;;30.40;15.30;;;16.90;96.70;;;;;;5079321;28;20670;-72
2022/10/14 07:38:06;;;;;;;23.40;14.02;;;17.00;96.70;;;;;;5081736;28;20047;-72
2022/10/14 07:40:35;;;;;;;23.45;14.10;;;17.00;96.70;;;;;;5065676;28;20154;-72
2022/10/14 07:43:03;;;;;;;21.23;13.80;;;17.00;96.70;;;;;;5082304;28;20133;-72
2022/10/14 07:45:34;;;;;;;25.52;13.85;;;17.00;96.70;;;;;;5084091;28;20082;-71
2022/10/14 07:48:03;;;;;;;21.90;13.45;;;17.10;96.70;;;;;;5080937;28;20044;-71
2022/10/14 07:50:31;;;;;;;19.52;12.85;;;17.10;96.70;;;;;;5082940;28;20044;-71
2022/10/14 07:52:59;;;;;;;23.63;13.00;;;17.20;96.70;;;;;;5080981;28;20035;-72
2022/10/14 07:55:28;;;;;;;26.90;15.77;;;17.30;96.70;;;;;;5080092;28;20115;-71
2022/10/14 07:57:57;;;;;;;20.42;12.77;;;17.40;96.70;;;;;;5075068;28;20040;-71
2022/10/14 08:00:26;;;;;;;20.92;13.10;;;17.40;96.70;;;;;;5080300;28;20057;-71
2022/10/14 08:02:54;;;;;;;23.52;13.07;;;17.50;96.70;;;;;;5078311;28;20047;-71
2022/10/14 08:05:22;;;;;;;19.38;12.32;;;17.50;96.70;;;;;;5090189;28;20044;-72
2022/10/14 08:08:05;;;;;;;23.90;13.88;;;17.60;96.70;;;;;;5081986;28;20131;-71
2022/10/14 08:10:33;;;;;;;25.52;14.90;;;17.60;96.70;;;;;;5082151;28;20066;-71
2022/10/14 08:13:03;;;;;;;20.35;13.05;;;17.70;96.70;;;;;;5097912;28;20047;-71
2022/10/14 08:15:37;;;;;;;25.00;13.82;;;17.70;96.70;;;;;;5082461;28;20450;-71
2022/10/14 08:18:06;;;;;;;20.80;13.48;;;17.70;96.70;;;;;;5082865;28;20056;-72
2022/10/14 08:20:35;;;;;;;19.00;12.93;;;17.80;96.70;;;;;;5080795;28;20418;-71
2022/10/14 08:23:03;;;;;;;22.27;14.30;;;17.80;96.70;;;;;;5082956;28;20121;-71
2022/10/14 08:25:31;;;;;;;20.63;14.23;;;17.90;96.70;;;;;;5081083;28;20044;-72
2022/10/14 08:27:59;;;;;;;18.33;12.90;;;18.10;96.70;;;;;;5079113;28;20146;-72
2022/10/14 08:30:28;;;;;;;20.77;13.63;;;18.10;96.70;;;;;;5082393;28;20042;-72
2022/10/14 08:32:58;;;;;;;19.20;13.45;;;18.20;96.70;;;;;;5063035;28;20086;-72
2022/10/14 08:35:27;;;;;;;20.02;14.40;;;18.30;96.70;;;;;;5082883;28;20044;-72
2022/10/14 08:37:56;;;;;;;23.92;15.20;;;18.50;96.70;;;;;;5086681;28;20043;-72
2022/10/14 08:40:25;;;;;;;23.52;16.65;;;18.50;96.70;;;;;;5066293;28;20311;-72
2022/10/14 08:43:00;;;;;;;29.10;20.52;;;18.50;96.70;;;;;;5081045;28;20078;-72
2022/10/14 08:45:35;;;;;;;26.77;19.75;;;18.50;96.70;;;;;;5085872;28;20465;-72
2022/10/14 08:48:09;;;;;;;20.75;15.95;;;18.50;96.70;;;;;;5081652;28;20040;-71
2022/10/14 08:50:41;;;;;;;22.92;15.68;;;18.70;96.70;;;;;;5080884;28;20135;-71
2022/10/14 08:53:13;;;;;;;20.20;14.88;;;18.70;96.70;;;;;;5086500;28;20044;-71
2022/10/14 08:55:43;;;;;;;20.60;13.77;;;18.70;96.70;;;;;;5085831;28;20055;-71
2022/10/14 08:58:18;;;;;;;19.30;14.38;;;18.80;96.70;;;;;;5085601;28;20401;-71
2022/10/14 09:00:51;;;;;;;18.30;12.90;;;18.90;96.70;;;;;;5085931;28;20048;-71
2022/10/14 09:03:21;;;;;;;16.83;12.60;;;19.10;96.70;;;;;;5080717;28;20059;-71
2022/10/14 09:05:56;;;;;;;18.45;12.85;;;19.10;96.70;;;;;;5084354;28;20051;-71
2022/10/14 09:08:30;;;;;;;17.55;13.35;;;19.20;96.70;;;;;;5084471;28;20147;-72
2022/10/14 09:10:58;;;;;;;17.40;13.30;;;19.10;96.70;;;;;;5086212;28;20063;-72
2022/10/14 09:13:33;;;;;;;19.55;15.02;;;19.10;96.70;;;;;;5086624;28;20153;-72
2022/10/14 09:16:07;;;;;;;19.17;14.38;;;19.20;96.70;;;;;;5086760;28;20036;-71
2022/10/14 09:18:39;;;;;;;20.80;15.23;;;19.30;96.70;;;;;;5080212;28;20060;-71
2022/10/14 09:21:25;;;;;;;25.60;17.25;;;19.40;96.70;;;;;;5085826;28;20383;-71
2022/10/14 09:24:15;;;;;;;23.25;16.30;;;19.60;96.70;;;;;;5078547;28;20178;-71
2022/10/14 09:26:45;;;;;;;23.58;16.83;;;19.80;96.70;;;;;;5079618;28;20044;-71
2022/10/14 09:29:22;;;;;;;22.10;16.17;;;19.80;96.70;;;;;;5067057;28;20047;-71
2022/10/14 09:31:55;;;;;;;23.30;16.17;;;19.80;96.70;;;;;;5085675;28;20036;-70
2022/10/14 09:34:30;;;;;;;23.67;16.80;;;19.90;96.70;;;;;;5084393;28;20611;-72
2022/10/14 09:37:09;;;;;;;21.25;15.70;;;20.00;96.70;;;;;;5085191;28;20044;-71
2022/10/14 09:39:39;;;;;;;21.25;14.40;;;20.20;96.70;;;;;;5068770;28;20055;-71
2022/10/14 09:42:14;;;;;;;20.20;15.30;;;20.20;96.70;;;;;;5082357;28;20502;-71
2022/10/14 09:44:42;;;;;;;18.73;14.70;;;20.20;96.70;;;;;;5085742;28;20497;-71
2022/10/14 09:47:15;;;;;;;19.48;14.88;;;20.30;96.70;;;;;;5085220;28;20033;-71
2022/10/14 09:49:45;;;;;;;19.52;14.90;;;20.40;96.70;;;;;;5079445;28;20044;-71
2022/10/14 09:52:22;;;;;;;19.98;14.77;;;20.60;96.70;;;;;;5084271;28;20036;-71
2022/10/14 09:54:54;;;;;;;20.70;15.75;;;20.60;96.70;;;;;;5085801;28;20041;-71
2022/10/14 09:57:24;;;;;;;21.77;14.98;;;20.70;96.70;;;;;;5085361;28;20077;-71
2022/10/14 09:59:55;;;;;;;18.05;13.68;;;20.80;96.70;;;;;;5084725;28;20472;-71
2022/10/14 10:02:33;;;;;;;16.33;13.43;;;20.90;96.70;;;;;;5085344;28;20090;-70
2022/10/14 10:05:11;;;;;;;19.98;14.20;;;20.90;96.70;;;;;;5084981;28;20528;-71
2022/10/14 10:07:39;;;;;;;18.65;14.65;;;21.00;96.70;;;;;;5082981;28;20067;-71
2022/10/14 10:10:17;;;;;;;19.05;14.38;;;21.00;96.70;;;;;;5085846;28;20043;-70
2022/10/14 10:12:46;;;;;;;17.90;14.40;;;21.00;96.70;;;;;;5084052;28;20047;-71
2022/10/14 10:15:20;;;;;;;16.98;13.85;;;21.00;96.70;;;;;;5068723;28;20500;-71
2022/10/14 10:17:50;;;;;;;18.10;13.95;;;21.10;96.70;;;;;;5085003;28;20087;-70
2022/10/14 10:20:27;;;;;;;17.08;13.13;;;21.20;96.70;;;;;;5084752;28;20068;-70
2022/10/14 10:22:55;;;;;;;17.65;13.90;;;21.20;96.70;;;;;;5083799;28;20048;-71
2022/10/14 10:25:26;;;;;;;17.35;13.75;;;21.40;96.70;;;;;;5085324;28;20048;-71
2022/10/14 10:27:57;;;;;;;18.63;13.23;;;21.50;96.70;;;;;;5082897;28;20070;-71
2022/10/14 10:30:27;;;;;;;16.02;12.40;;;21.60;96.70;;;;;;5080577;28;20056;-71
2022/10/14 10:33:10;;;;;;;13.20;11.77;;;21.70;96.70;;;;;;5085891;28;20131;-71
2022/10/14 10:35:55;;;;;;;15.07;12.05;;;21.80;96.70;;;;;;5084651;28;20125;-71
2022/10/14 10:38:30;;;;;;;17.67;14.00;;;21.80;96.70;;;;;;5083541;28;20039;-71
2022/10/14 10:41:14;;;;;;;16.23;12.63;;;21.80;96.70;;;;;;5084128;28;20067;-70
2022/10/14 10:44:11;;;;;;;13.70;12.30;;;21.80;96.70;;;;;;5083614;28;20507;-71
2022/10/14 10:47:01;;;;;;;20.40;14.18;;;22.00;96.70;;;;;;5082873;28;20405;-71
2022/10/14 10:49:47;;;;;;;15.98;12.73;;;22.10;96.70;;;;;;5082627;28;20040;-71
2022/10/14 10:52:22;;;;;;;16.87;12.27;;;22.10;96.70;;;;;;5083659;28;20054;-71
2022/10/14 10:54:59;;;;;;;12.63;10.85;;;22.10;96.70;;;;;;5061988;28;20047;-71
2022/10/14 10:57:41;;;;;;;13.73;9.88;;;22.10;96.70;;;;;;5083421;28;20040;-71
2022/10/14 11:00:13;;;;;;;14.18;11.32;;;22.10;96.70;;;;;;5083639;28;20638;-71
2022/10/14 11:03:15;;;;;;;13.52;11.15;;;22.20;96.70;;;;;;5078186;28;20050;-71
2022/10/14 11:05:54;;;;;;;14.85;10.65;;;22.40;96.70;;;;;;5079678;28;20123;-71
2022/10/14 11:12:01;;;;;;;12.90;9.98;;;22.60;96.70;;;;;;5083468;28;20040;-71
2022/10/14 11:14:52;;;;;;;12.20;9.48;;;22.70;96.70;;;;;;5082553;28;20036;-70
2022/10/14 11:17:30;;;;;;;10.80;9.18;;;22.80;96.70;;;;;;5082390;28;20547;-70
2022/10/14 11:20:07;;;;;;;14.50;8.70;;;22.70;96.70;;;;;;5083444;28;20067;-71
2022/10/14 11:23:03;;;;;;;11.93;9.20;;;22.80;96.70;;;;;;5080348;28;20139;-71
2022/10/14 11:25:43;;;;;;;11.38;8.90;;;22.90;96.70;;;;;;5081845;28;20048;-71
2022/10/14 11:28:19;;;;;;;14.68;9.30;;;23.00;96.70;;;;;;5081799;28;20039;-71
2022/10/14 11:30:54;;;;;;;10.02;8.35;;;23.20;96.70;;;;;;5111273;27;20068;-70
2022/10/14 11:33:41;;;;;;;12.38;8.45;;;23.20;96.70;;;;;;5083142;28;20753;-71
2022/10/14 11:36:18;;;;;;;12.35;8.27;;;23.40;96.70;;;;;;5109513;27;20442;-71
2022/10/14 11:39:02;;;;;;;9.90;7.43;;;23.40;96.70;;;;;;5083513;28;20432;-71
2022/10/14 11:41:51;;;;;;;10.85;6.85;;;23.50;96.70;;;;;;5078654;28;20052;-70
2022/10/14 11:44:24;;;;;;;11.00;6.85;;;23.40;96.70;;;;;;5083525;28;20505;-71
2022/10/14 11:46:58;;;;;;;11.57;6.88;;;23.50;96.70;;;;;;5084035;28;20295;-70
2022/10/14 11:49:29;;;;;;;8.60;5.53;;;23.70;96.70;;;;;;5077132;28;20052;-71
2022/10/14 11:52:02;;;;;;;8.90;6.20;;;23.70;96.70;;;;;;5079072;28;20044;-71
2022/10/14 11:54:35;;;;;;;9.98;5.45;;;23.80;96.70;;;;;;5082980;28;20039;-71
2022/10/14 11:57:09;;;;;;;9.00;6.38;;;24.10;96.70;;;;;;5082299;28;20429;-71
2022/10/14 11:59:59;;;;;;;11.70;6.20;;;24.00;96.70;;;;;;5082753;28;20056;-71
2022/10/14 12:02:39;;;;;;;11.15;5.82;;;24.10;96.70;;;;;;5082651;28;20048;-71
2022/10/14 12:05:17;;;;;;;9.93;5.45;;;24.10;96.70;;;;;;5081103;28;20054;-70
2022/10/14 12:08:06;;;;;;;10.40;5.90;;;24.20;96.70;;;;;;5075176;28;20040;-71
2022/10/14 12:10:41;;;;;;;9.02;5.75;;;24.20;96.70;;;;;;5081593;28;20052;-71
2022/10/14 12:13:13;;;;;;;10.00;5.80;;;24.20;96.70;;;;;;5077799;28;20525;-71
2022/10/14 12:15:47;;;;;;;7.38;5.53;;;24.40;96.70;;;;;;5083049;28;20040;-71
2022/10/14 12:18:18;;;;;;;12.82;6.40;;;24.50;96.70;;;;;;5082090;28;20048;-71
2022/10/14 12:20:51;;;;;;;10.90;6.03;;;24.60;96.70;;;;;;5078976;28;20079;-72
2022/10/14 12:23:29;;;;;;;9.65;5.90;;;24.70;96.70;;;;;;5083608;28;20113;-71
2022/10/14 12:26:05;;;;;;;7.53;5.95;;;24.70;96.70;;;;;;5081549;28;20498;-72
2022/10/14 12:28:36;;;;;;;7.45;6.00;;;24.90;96.70;;;;;;5083247;28;20562;-71
2022/10/14 12:31:35;;;;;;;8.38;5.70;;;24.70;96.70;;;;;;5078330;28;20578;-71
2022/10/14 12:34:17;;;;;;;10.50;5.85;;;24.90;96.70;;;;;;5079490;28;20127;-71
2022/10/14 12:36:47;;;;;;;8.40;5.40;;;25.20;96.70;;;;;;5080632;28;20504;-71
2022/10/14 12:39:32;;;;;;;10.15;5.05;;;25.20;96.70;;;;;;5077846;28;20067;-71
2022/10/14 12:42:04;;;;;;;10.25;5.03;;;24.70;96.70;;;;;;5075859;28;20055;-71
2022/10/14 12:44:44;;;;;;;11.75;5.00;;;24.50;96.70;;;;;;5084103;28;20052;-72
2022/10/14 12:47:18;;;;;;;9.32;4.88;;;24.10;96.70;;;;;;5078324;28;20145;-70
2022/10/14 12:49:49;;;;;;;7.22;4.18;;;24.00;96.70;;;;;;5082192;28;20052;-71
2022/10/14 12:52:24;;;;;;;10.35;4.20;;;23.90;96.70;;;;;;5082641;28;20475;-71
2022/10/14 12:54:52;;;;;;;6.65;3.97;;;24.00;96.70;;;;;;5082720;28;20044;-71
2022/10/14 12:57:27;;;;;;;10.45;4.10;;;24.10;96.70;;;;;;5081067;28;20042;-72
2022/10/14 12:59:58;;;;;;;7.72;4.28;;;24.20;96.70;;;;;;5076666;28;20134;-72
2022/10/14 13:02:32;;;;;;;8.90;3.80;;;24.20;96.70;;;;;;5080658;28;20048;-71
2022/10/14 13:05:04;;;;;;;6.75;4.13;;;24.00;96.70;;;;;;5082359;28;20040;-72
2022/10/14 13:07:40;;;;;;;14.05;4.00;;;23.90;96.70;;;;;;5082860;28;20052;-71
2022/10/14 13:10:44;;;;;;;7.75;3.92;;;23.90;96.70;;;;;;5090556;28;20424;-71